Akk, Virginia
Current Conditions -  °F | °C
As of 12:35 PM on Saturday 22 Nov 2014 (Local Time) from KFYJ Reporting Station
Clear Clear  
Wind Chill: 45°   Ceiling: Unl
Heat Index: 49°   Visibility: 10mi
Dew Point:   Wind: 12mph
Humidity: 19%   Direction: 190°S
Pressure: 30.49"   Gusts: NA
Location:  37.4383°N, 76.5764°W
Report Text: KFYJ 221735Z AUTO 19010KT 10SM CLR 10/M13 A3049 RMK AO2 T00961131
Loading
Personal Weather Stations






























Interactive Weather Map New forecast layout! Learn more

10-Day Weather Forecast

Advertisements
Track Severe Weather on mobile